Terminal Aerodrome Forecast
Issued by NWS Amarillo, TX

Home | Current Version | Previous Version | Text Only | Print | Product List | Glossary On
Versions: 1 2 3 4 5 6 7 8 9 10 11 12 13 14 15 16 17 18 19 20 21 22 23 24 25 26 27 28 29 30
000
FTUS44 KAMA 191700
TAFDHT
TAF
KDHT 191739Z 1918/2018 21006KT 6SM BR BKN006
     FM192000 19006KT P6SM SCT025
     FM200400 22006KT 3SM BR OVC006
     FM201200 25006KT P6SM SCT015 SCT300=

USA.gov is the U.S. government's official web portal to all federal, state and local government web resources and services.